UHMA

Ugolny Airport

Airport
ICAO code
UHMA
IATA Code
DYR
Summary
ICAO Region
EUR
ICAO Territory
Location

Ugolnye, Siberia

Serving
Anadyr
Elevation
194 ft
Coordinates
64° 43' 57" N , 177° 43' 52" E
KCC
Metar
UHMA 241100Z 36006MPS 9999 FEW003 SCT033 BKN046 M21/M24 Q1012 R02/////// NOSIG RMK MID 35004MPS END R02/35004MPS QFE755/1007

Civil and military airport serving the city of Anadyr in Siberia. With a long runway and modern terminal, the airport is well-suited as an emergency diversion for northern route, trans-Pacific routes.

Climatology

Subarctic climate (Köppen climate classification Dfc) - long, usually very cold winters, and short, cool to mild summers.

Runways

Designator Length Width Surface Rops
1/19 3500 60 CON Yes/Yes

Airport map

Aerial View

SKYbrary Partners:

Safety knowledge contributed by: